Alsace — PB4786 — position and weather

sailwx.info

Track history (hours):
 
Tides and Currents Weather Stations Pressure Air Temp Water Temp Dewpoint Dewpoint Depression Visibility Wind Speed Wind Dir Waves Ship Positions

Alsace

Last reported at 2016-May-03 08:33 UTC. Time now 2016-May-03 08:41 UTC.
Position N 51°17' E 004°16'.

Length 178 m; draft 1.8 m.

Type: Ship. MMSI: 244660556.

Date/timePositionNaut miles runAvg speedWind from/ knotsBaromVisibWave heightAir tempDewpointWater temp
2016-May-03 08:33N 51°17' E 004°16'0 0.0
2016-May-03 07:33N 51°17' E 004°16'4 3.8
2016-May-03 06:33N 51°21' E 004°16'0 0.1
2016-May-03 05:33N 51°21' E 004°16'3 2.7
2016-May-03 04:33N 51°18' E 004°17'1 0.6
2016-May-03 03:33N 51°18' E 004°18'0 0.0
2016-May-03 02:33N 51°18' E 004°18'1 1.2
2016-May-03 01:33N 51°18' E 004°16'0 0.0
2016-May-03 00:33N 51°18' E 004°16'0 0.0
2016-May-02 23:34N 51°18' E 004°16'0 0.1
2016-May-02 22:33N 51°18' E 004°16'1 1.3
2016-May-02 21:33N 51°18' E 004°18'0 0.0
2016-May-02 20:33N 51°18' E 004°18'0 0.0
2016-May-02 19:33N 51°18' E 004°18'0 0.0
2016-May-02 18:33N 51°18' E 004°18'0 0.0
2016-May-02 17:33N 51°18' E 004°18'0 0.0
2016-May-02 16:33N 51°18' E 004°18'2 2.4
2016-May-02 15:33N 51°20' E 004°16'1 0.7
2016-May-02 14:33N 51°21' E 004°17'2 2.2
2016-May-02 13:33N 51°20' E 004°19'0 0.1
2016-May-02 12:33N 51°20' E 004°20'0 0.0
2016-May-02 11:33N 51°20' E 004°20'1 0.6
2016-May-02 10:33N 51°19' E 004°19'7 6.8
2016-May-02 09:32N 51°26' E 004°14'17 5.1
2016-May-02 06:11N 51°42' E 004°25'5 7.4
2016-May-02 05:31N 51°42' E 004°33'9 9.2
2016-May-02 04:33N 51°46' E 004°45'9 9.1
2016-May-02 03:33N 51°49' E 004°59'49 5.9
2016-May-01 19:07N 51°48' E 006°19'7 7.8
2016-May-01 18:11N 51°43' E 006°27'5 8.6
2016-May-01 17:33N 51°40' E 006°34'7 6.7
2016-May-01 16:33N 51°34' E 006°41'21 7.1
2016-May-01 13:33N 51°13' E 006°45'5 4.5
2016-May-01 12:24N 51°10' E 006°51'126 7.3
2016-Apr-30 19:11N 49°19' E 008°27'5 7.5
2016-Apr-30 18:32N 49°15' E 008°24'1110.8
2016-Apr-30 17:33N 49°05' E 008°20'91 5.6
2016-Apr-30 01:12N 47°39' E 007°32'4 5.2
2016-Apr-30 00:32N 47°37' E 007°35'2 1.5
2016-Apr-29 23:30N 47°35' E 007°35'0 0.0
2016-Apr-29 22:16N 47°35' E 007°35'0 0.0
2016-Apr-29 19:09N 47°35' E 007°35'0 0.2
2016-Apr-29 17:16N 47°35' E 007°36'0 0.4
2016-Apr-29 16:32N 47°35' E 007°36'0 0.0
2016-Apr-29 15:33N 47°35' E 007°36'0 0.0
2016-Apr-29 14:16N 47°35' E 007°36'0 0.0
2016-Apr-29 13:33N 47°35' E 007°36'0 0.3
2016-Apr-29 12:22N 47°35' E 007°35'1 0.5
2016-Apr-29 09:18N 47°37' E 007°35'84 2.9
2016-Apr-28 04:27N 48°57' E 008°11'4 5.0
2016-Apr-28 03:33N 48°59' E 008°17'5 5.3
2016-Apr-28 02:33N 49°04' E 008°20'5 5.2
2016-Apr-28 01:33N 49°09' E 008°22'4 4.4
2016-Apr-28 00:33N 49°14' E 008°23'5 5.1
2016-Apr-27 23:32N 49°17' E 008°29'99 4.3
2016-Apr-27 00:33N 50°42' E 007°10'5 5.3
2016-Apr-26 23:33N 50°46' E 007°05'5 5.0
2016-Apr-26 22:29N 50°50' E 006°59'4 4.1
2016-Apr-26 21:25N 50°54' E 007°02'18 4.5
2016-Apr-26 17:30N 51°10' E 006°51'3 3.1
2016-Apr-26 16:33N 51°11' E 006°47'3 2.5
2016-Apr-26 15:33N 51°13' E 006°45'13 3.7
2016-Apr-26 12:04N 51°26' E 006°43'2 4.2
2016-Apr-26 11:33N 51°28' E 006°42'4 3.7
2016-Apr-26 10:33N 51°32' E 006°41'4 3.7
2016-Apr-26 09:33N 51°34' E 006°36'5 5.3
2016-Apr-26 08:32N 51°40' E 006°35'62 3.3
2016-Apr-25 13:33N 51°50' E 004°56'9 6.8
2016-Apr-25 12:17N 51°45' E 004°44'6 8.6
2016-Apr-25 11:33N 51°42' E 004°35'16 6.6
2016-Apr-25 09:08N 51°36' E 004°11'5 8.4
2016-Apr-25 08:32N 51°31' E 004°13'5 4.7
2016-Apr-25 07:33N 51°26' E 004°14'7 7.1
2016-Apr-25 06:33N 51°20' E 004°18'1 0.9
2016-Apr-25 05:33N 51°20' E 004°20'0 0.2
2016-Apr-25 04:33N 51°20' E 004°20'0 0.3
2016-Apr-25 03:33N 51°20' E 004°20'0 0.1
2016-Apr-25 02:33N 51°20' E 004°21'0 0.0
2016-Apr-25 01:33N 51°20' E 004°21'0 0.0
2016-Apr-25 00:33N 51°20' E 004°21'0 0.0
2016-Apr-24 23:33N 51°20' E 004°21'0 0.0
2016-Apr-24 22:33N 51°20' E 004°21'0 0.0
2016-Apr-24 21:33N 51°20' E 004°21'0 0.0
2016-Apr-24 20:33N 51°20' E 004°21'0 0.0
2016-Apr-24 19:33N 51°20' E 004°21'0 0.0
2016-Apr-24 18:33N 51°20' E 004°21'0 0.2
2016-Apr-24 17:33N 51°20' E 004°20'2 2.3
2016-Apr-24 16:33N 51°21' E 004°17'1 0.5
2016-Apr-24 15:32N 51°21' E 004°16'1 0.7
2016-Apr-24 14:33N 51°20' E 004°17'0 0.0
2016-Apr-24 13:33N 51°20' E 004°17'1 0.6
2016-Apr-24 12:34N 51°20' E 004°17'1 0.6
2016-Apr-24 11:32N 51°19' E 004°17'0 0.0
2016-Apr-24 10:33N 51°19' E 004°17'0 0.0
2016-Apr-24 09:33N 51°19' E 004°17'0 0.0
2016-Apr-24 08:33N 51°19' E 004°17'0 0.0
2016-Apr-24 07:33N 51°19' E 004°17'0 0.0
2016-Apr-24 06:33N 51°19' E 004°17'0 0.0
2016-Apr-24 05:33N 51°19' E 004°17'2 2.1
2016-Apr-24 04:34N 51°21' E 004°16'0 0.0
2016-Apr-24 03:33N 51°21' E 004°16'0 0.0
2016-Apr-24 02:33N 51°21' E 004°16'2 2.1
2016-Apr-24 01:33N 51°19' E 004°17'0 0.0
2016-Apr-24 00:33N 51°19' E 004°17'0 0.0
2016-Apr-23 23:33N 51°19' E 004°17'1 1.5
2016-Apr-23 22:33N 51°18' E 004°16'0 0.1
2016-Apr-23 21:33N 51°17' E 004°16'0 0.0
2016-Apr-23 20:33N 51°17' E 004°16'1 0.6
2016-Apr-23 19:33N 51°18' E 004°16'0 0.0
2016-Apr-23 18:33N 51°18' E 004°16'3 2.9
2016-Apr-23 17:33N 51°17' E 004°20'1 1.4
2016-Apr-23 16:33N 51°18' E 004°20'6 6.2
2016-Apr-23 15:33N 51°23' E 004°15'22 4.3
2016-Apr-23 10:25N 51°42' E 004°34'7 7.9
2016-Apr-23 09:33N 51°45' E 004°44'8 8.1
2016-Apr-23 08:33N 51°50' E 004°55'  
Track history (hours):
 
Tides and Currents Weather Stations Pressure Air Temp Water Temp Dewpoint Dewpoint Depression Visibility Wind Speed Wind Dir Waves Ship Positions

Alsace

Last reported at 2016-May-03 08:33 UTC. Time now 2016-May-03 08:41 UTC.
Position N 51°17' E 004°16'.

Length 178 m; draft 1.8 m.

Type: Ship. MMSI: 244660556.

Date/timePositionNaut miles runAvg speedWind from/ knotsBaromVisibWave heightAir tempDewpointWater temp
2016-May-03 08:33N 51°17' E 004°16'0 0.0
2016-May-03 07:33N 51°17' E 004°16'4 3.8
2016-May-03 06:33N 51°21' E 004°16'0 0.1
2016-May-03 05:33N 51°21' E 004°16'3 2.7
2016-May-03 04:33N 51°18' E 004°17'1 0.6
2016-May-03 03:33N 51°18' E 004°18'0 0.0
2016-May-03 02:33N 51°18' E 004°18'1 1.2
2016-May-03 01:33N 51°18' E 004°16'0 0.0
2016-May-03 00:33N 51°18' E 004°16'0 0.0
2016-May-02 23:34N 51°18' E 004°16'0 0.1
2016-May-02 22:33N 51°18' E 004°16'1 1.3
2016-May-02 21:33N 51°18' E 004°18'0 0.0
2016-May-02 20:33N 51°18' E 004°18'0 0.0
2016-May-02 19:33N 51°18' E 004°18'0 0.0
2016-May-02 18:33N 51°18' E 004°18'0 0.0
2016-May-02 17:33N 51°18' E 004°18'0 0.0
2016-May-02 16:33N 51°18' E 004°18'2 2.4
2016-May-02 15:33N 51°20' E 004°16'1 0.7
2016-May-02 14:33N 51°21' E 004°17'2 2.2
2016-May-02 13:33N 51°20' E 004°19'0 0.1
2016-May-02 12:33N 51°20' E 004°20'0 0.0
2016-May-02 11:33N 51°20' E 004°20'1 0.6
2016-May-02 10:33N 51°19' E 004°19'7 6.8
2016-May-02 09:32N 51°26' E 004°14'17 5.1
2016-May-02 06:11N 51°42' E 004°25'5 7.4
2016-May-02 05:31N 51°42' E 004°33'9 9.2
2016-May-02 04:33N 51°46' E 004°45'9 9.1
2016-May-02 03:33N 51°49' E 004°59'49 5.9
2016-May-01 19:07N 51°48' E 006°19'7 7.8
2016-May-01 18:11N 51°43' E 006°27'5 8.6
2016-May-01 17:33N 51°40' E 006°34'7 6.7
2016-May-01 16:33N 51°34' E 006°41'21 7.1
2016-May-01 13:33N 51°13' E 006°45'5 4.5
2016-May-01 12:24N 51°10' E 006°51'126 7.3
2016-Apr-30 19:11N 49°19' E 008°27'5 7.5
2016-Apr-30 18:32N 49°15' E 008°24'1110.8
2016-Apr-30 17:33N 49°05' E 008°20'91 5.6
2016-Apr-30 01:12N 47°39' E 007°32'4 5.2
2016-Apr-30 00:32N 47°37' E 007°35'2 1.5
2016-Apr-29 23:30N 47°35' E 007°35'0 0.0
2016-Apr-29 22:16N 47°35' E 007°35'0 0.0
2016-Apr-29 19:09N 47°35' E 007°35'0 0.2
2016-Apr-29 17:16N 47°35' E 007°36'0 0.4
2016-Apr-29 16:32N 47°35' E 007°36'0 0.0
2016-Apr-29 15:33N 47°35' E 007°36'0 0.0
2016-Apr-29 14:16N 47°35' E 007°36'0 0.0
2016-Apr-29 13:33N 47°35' E 007°36'0 0.3
2016-Apr-29 12:22N 47°35' E 007°35'1 0.5
2016-Apr-29 09:18N 47°37' E 007°35'84 2.9
2016-Apr-28 04:27N 48°57' E 008°11'4 5.0
2016-Apr-28 03:33N 48°59' E 008°17'5 5.3
2016-Apr-28 02:33N 49°04' E 008°20'5 5.2
2016-Apr-28 01:33N 49°09' E 008°22'4 4.4
2016-Apr-28 00:33N 49°14' E 008°23'5 5.1
2016-Apr-27 23:32N 49°17' E 008°29'99 4.3
2016-Apr-27 00:33N 50°42' E 007°10'5 5.3
2016-Apr-26 23:33N 50°46' E 007°05'5 5.0
2016-Apr-26 22:29N 50°50' E 006°59'4 4.1
2016-Apr-26 21:25N 50°54' E 007°02'18 4.5
2016-Apr-26 17:30N 51°10' E 006°51'3 3.1
2016-Apr-26 16:33N 51°11' E 006°47'3 2.5
2016-Apr-26 15:33N 51°13' E 006°45'13 3.7
2016-Apr-26 12:04N 51°26' E 006°43'2 4.2
2016-Apr-26 11:33N 51°28' E 006°42'4 3.7
2016-Apr-26 10:33N 51°32' E 006°41'4 3.7
2016-Apr-26 09:33N 51°34' E 006°36'5 5.3
2016-Apr-26 08:32N 51°40' E 006°35'62 3.3
2016-Apr-25 13:33N 51°50' E 004°56'9 6.8
2016-Apr-25 12:17N 51°45' E 004°44'6 8.6
2016-Apr-25 11:33N 51°42' E 004°35'16 6.6
2016-Apr-25 09:08N 51°36' E 004°11'5 8.4
2016-Apr-25 08:32N 51°31' E 004°13'5 4.7
2016-Apr-25 07:33N 51°26' E 004°14'7 7.1
2016-Apr-25 06:33N 51°20' E 004°18'1 0.9
2016-Apr-25 05:33N 51°20' E 004°20'0 0.2
2016-Apr-25 04:33N 51°20' E 004°20'0 0.3
2016-Apr-25 03:33N 51°20' E 004°20'0 0.1
2016-Apr-25 02:33N 51°20' E 004°21'0 0.0
2016-Apr-25 01:33N 51°20' E 004°21'0 0.0
2016-Apr-25 00:33N 51°20' E 004°21'0 0.0
2016-Apr-24 23:33N 51°20' E 004°21'0 0.0
2016-Apr-24 22:33N 51°20' E 004°21'0 0.0
2016-Apr-24 21:33N 51°20' E 004°21'0 0.0
2016-Apr-24 20:33N 51°20' E 004°21'0 0.0
2016-Apr-24 19:33N 51°20' E 004°21'0 0.0
2016-Apr-24 18:33N 51°20' E 004°21'0 0.2
2016-Apr-24 17:33N 51°20' E 004°20'2 2.3
2016-Apr-24 16:33N 51°21' E 004°17'1 0.5
2016-Apr-24 15:32N 51°21' E 004°16'1 0.7
2016-Apr-24 14:33N 51°20' E 004°17'0 0.0
2016-Apr-24 13:33N 51°20' E 004°17'1 0.6
2016-Apr-24 12:34N 51°20' E 004°17'1 0.6
2016-Apr-24 11:32N 51°19' E 004°17'0 0.0
2016-Apr-24 10:33N 51°19' E 004°17'0 0.0
2016-Apr-24 09:33N 51°19' E 004°17'0 0.0
2016-Apr-24 08:33N 51°19' E 004°17'0 0.0
2016-Apr-24 07:33N 51°19' E 004°17'0 0.0
2016-Apr-24 06:33N 51°19' E 004°17'0 0.0
2016-Apr-24 05:33N 51°19' E 004°17'2 2.1
2016-Apr-24 04:34N 51°21' E 004°16'0 0.0
2016-Apr-24 03:33N 51°21' E 004°16'0 0.0
2016-Apr-24 02:33N 51°21' E 004°16'2 2.1
2016-Apr-24 01:33N 51°19' E 004°17'0 0.0
2016-Apr-24 00:33N 51°19' E 004°17'0 0.0
2016-Apr-23 23:33N 51°19' E 004°17'1 1.5
2016-Apr-23 22:33N 51°18' E 004°16'0 0.1
2016-Apr-23 21:33N 51°17' E 004°16'0 0.0
2016-Apr-23 20:33N 51°17' E 004°16'1 0.6
2016-Apr-23 19:33N 51°18' E 004°16'0 0.0
2016-Apr-23 18:33N 51°18' E 004°16'3 2.9
2016-Apr-23 17:33N 51°17' E 004°20'1 1.4
2016-Apr-23 16:33N 51°18' E 004°20'6 6.2
2016-Apr-23 15:33N 51°23' E 004°15'22 4.3
2016-Apr-23 10:25N 51°42' E 004°34'7 7.9
2016-Apr-23 09:33N 51°45' E 004°44'8 8.1
2016-Apr-23 08:33N 51°50' E 004°55'  

Dump ship's entire track history